createdAt,value
2023-04-18T00:01:01.862Z,101760.69
2023-04-18T00:03:05.436Z,101756.38
2023-04-18T00:05:09.550Z,101749.19
2023-04-18T00:07:15.036Z,101754.34
2023-04-18T00:09:18.431Z,101748.19
2023-04-18T00:11:21.795Z,101758.53
2023-04-18T00:13:28.393Z,101747.91
2023-04-18T00:15:32.228Z,101753.91
2023-04-18T00:17:39.576Z,101752.97
2023-04-18T00:19:43.284Z,101753.66
2023-04-18T00:21:47.020Z,101708.34
2023-04-18T00:23:50.774Z,101753.66
2023-04-18T00:25:54.067Z,101734.13
2023-04-18T00:27:57.395Z,101745.69
2023-04-18T00:30:00.823Z,101741.06
2023-04-18T00:32:04.116Z,101723.03
2023-04-18T00:34:08.891Z,101718.84
2023-04-18T00:36:12.279Z,101741.06
2023-04-18T00:38:17.075Z,101742.66
2023-04-18T00:40:20.724Z,101745.19
2023-04-18T00:42:25.377Z,101743.28
2023-04-18T00:44:28.851Z,101737.03
2023-04-18T00:46:32.288Z,101738.75
2023-04-18T00:48:36.051Z,101734.25
2023-04-18T00:50:42.244Z,101738.47
2023-04-18T00:52:46.835Z,101731.53
2023-04-18T00:54:50.736Z,101733.28
2023-04-18T00:56:55.372Z,101729.66
2023-04-18T00:58:59.270Z,101734.75
2023-04-18T01:01:02.713Z,101725.22
2023-04-18T01:03:08.622Z,101687.00
2023-04-18T01:05:12.359Z,101727.91
2023-04-18T01:07:17.046Z,101724.44
2023-04-18T01:09:21.826Z,101728.81
2023-04-18T01:11:25.379Z,101719.75
2023-04-18T01:13:28.805Z,101725.00
2023-04-18T01:15:32.437Z,101732.63
2023-04-18T01:17:35.816Z,101715.91
2023-04-18T01:19:39.408Z,101722.81
2023-04-18T01:21:44.426Z,101727.03
2023-04-18T01:23:52.251Z,101704.88
2023-04-18T01:25:56.961Z,101707.53
2023-04-18T01:28:02.520Z,101714.50
2023-04-18T01:30:06.977Z,101711.81
2023-04-18T01:32:10.331Z,101711.75
2023-04-18T01:34:15.490Z,101704.78
2023-04-18T01:36:19.076Z,101699.44
2023-04-18T01:38:22.439Z,101700.94
2023-04-18T01:40:26.023Z,101705.22
2023-04-18T01:42:31.383Z,101677.59
2023-04-18T01:44:34.691Z,101682.91
2023-04-18T01:46:38.886Z,101704.59
2023-04-18T01:48:42.340Z,101702.56
2023-04-18T01:50:45.719Z,101699.81
2023-04-18T01:52:49.027Z,101687.78
2023-04-18T01:54:52.765Z,101692.34
2023-04-18T01:56:56.084Z,101701.09
2023-04-18T01:59:00.848Z,101620.22
2023-04-18T02:01:04.816Z,101702.81
2023-04-18T02:03:08.292Z,101701.69
2023-04-18T02:05:11.804Z,101698.09
2023-04-18T02:07:15.712Z,101702.44
2023-04-18T02:09:19.162Z,101699.81
2023-04-18T02:11:22.533Z,101697.28
2023-04-18T02:13:25.956Z,101688.31
2023-04-18T02:15:30.695Z,101691.88
2023-04-18T02:17:35.565Z,101693.59
2023-04-18T02:19:38.957Z,101691.69
2023-04-18T02:21:44.505Z,101686.34
2023-04-18T02:23:47.970Z,101695.13
2023-04-18T02:25:52.885Z,101694.22
2023-04-18T02:27:57.427Z,101695.81
2023-04-18T02:30:00.775Z,101692.94
2023-04-18T02:32:05.817Z,101688.50
2023-04-18T02:34:09.565Z,101626.19
2023-04-18T02:36:13.403Z,101691.13
2023-04-18T02:38:18.911Z,101693.66
2023-04-18T02:40:22.225Z,101689.19
2023-04-18T02:42:25.608Z,101697.03
2023-04-18T02:44:29.021Z,101698.00
2023-04-18T02:46:32.391Z,101693.66
2023-04-18T02:48:37.555Z,101693.59
2023-04-18T02:50:41.908Z,101699.84
2023-04-18T02:52:45.822Z,101657.69
2023-04-18T02:54:49.126Z,101674.31
2023-04-18T02:56:57.522Z,101700.78
2023-04-18T02:59:32.911Z,101698.88
2023-04-18T03:01:48.554Z,101704.13
2023-04-18T03:03:57.962Z,101696.31
2023-04-18T03:06:10.528Z,101701.53
2023-04-18T03:08:14.472Z,101696.16
2023-04-18T03:10:18.047Z,101704.09
2023-04-18T03:12:21.539Z,101703.00
2023-04-18T03:14:24.960Z,101702.84
2023-04-18T03:16:32.168Z,101702.84
2023-04-18T03:18:35.483Z,101692.22
2023-04-18T03:20:40.952Z,101703.88
2023-04-18T03:22:44.932Z,101706.75
2023-04-18T03:24:49.436Z,101703.88
2023-04-18T03:26:54.193Z,101703.69
2023-04-18T03:29:02.767Z,101706.94
2023-04-18T03:31:06.642Z,101704.94
2023-04-18T03:33:14.802Z,101710.00
2023-04-18T03:35:19.200Z,101711.47
2023-04-18T03:37:23.961Z,101708.59
2023-04-18T03:39:32.415Z,101710.44
2023-04-18T03:41:36.302Z,101709.69
2023-04-18T03:43:40.356Z,101717.56
2023-04-18T03:45:44.352Z,101711.31
2023-04-18T03:47:48.234Z,101715.47
2023-04-18T03:49:54.150Z,101709.47
2023-04-18T03:51:58.160Z,101709.47
2023-04-18T03:54:02.891Z,101706.06
2023-04-18T03:56:07.052Z,101711.19
2023-04-18T03:58:23.898Z,101717.03
2023-04-18T04:00:28.854Z,101691.09
2023-04-18T04:02:38.243Z,101708.03
2023-04-18T04:04:41.851Z,101709.69
2023-04-18T04:06:47.212Z,101709.47
2023-04-18T04:08:50.621Z,101712.72
2023-04-18T04:10:59.420Z,101709.88
2023-04-18T04:13:03.110Z,101714.34
2023-04-18T04:15:12.859Z,101715.31
2023-04-18T04:17:23.210Z,101712.56
2023-04-18T04:19:29.674Z,101721.06
2023-04-18T04:21:44.923Z,101722.63
2023-04-18T04:23:55.152Z,101716.47
2023-04-18T04:26:15.082Z,101725.09
2023-04-18T04:28:26.268Z,101716.03
2023-04-18T04:30:35.719Z,101722.31
2023-04-18T04:32:39.195Z,101689.31
2023-04-18T04:34:42.617Z,101725.72
2023-04-18T04:36:48.519Z,101732.50
2023-04-18T04:38:52.233Z,101703.81
2023-04-18T04:41:00.123Z,101749.53
2023-04-18T04:43:06.211Z,101743.22
2023-04-18T04:45:13.835Z,101720.09
2023-04-18T04:47:17.437Z,101751.09
2023-04-18T04:49:21.114Z,101758.47
2023-04-18T04:51:24.958Z,101759.38
2023-04-18T04:53:30.352Z,101768.56
2023-04-18T04:55:35.310Z,101779.28
2023-04-18T04:57:40.824Z,101762.84
2023-04-18T05:00:01.742Z,101769.41
2023-04-18T05:02:05.635Z,101780.06
2023-04-18T05:04:09.100Z,101765.72
2023-04-18T05:06:13.999Z,101768.50
2023-04-18T05:08:17.352Z,101771.09
2023-04-18T05:10:21.027Z,101765.16
2023-04-18T05:12:24.572Z,101769.22
2023-04-18T05:14:27.954Z,101772.44
2023-04-18T05:16:32.879Z,101765.28
2023-04-18T05:18:39.047Z,101774.00
2023-04-18T05:20:42.380Z,101784.34
2023-04-18T05:22:45.804Z,101781.38
2023-04-18T05:24:49.154Z,101790.41
2023-04-18T05:26:52.575Z,101781.69
2023-04-18T05:28:56.037Z,101792.78
2023-04-18T05:31:02.073Z,101770.53
2023-04-18T05:33:06.920Z,101786.94
2023-04-18T05:35:10.772Z,101793.53
2023-04-18T05:37:14.187Z,101791.19
2023-04-18T05:39:17.703Z,101795.81
2023-04-18T05:41:21.182Z,101793.59
2023-04-18T05:43:25.452Z,101784.63
2023-04-18T05:45:28.794Z,101797.75
2023-04-18T05:47:33.534Z,101797.44
2023-04-18T05:49:38.309Z,101783.09
2023-04-18T05:51:41.655Z,101783.38
2023-04-18T05:53:45.087Z,101790.19
2023-04-18T05:55:48.893Z,101772.88
2023-04-18T05:57:52.421Z,101796.06
2023-04-18T05:59:55.777Z,101781.53
2023-04-18T06:01:59.096Z,101802.88
2023-04-18T06:04:02.535Z,101806.75
2023-04-18T06:06:07.641Z,101807.88
2023-04-18T06:08:11.088Z,101793.56
2023-04-18T06:10:15.723Z,101802.72
2023-04-18T06:12:19.019Z,101789.09
2023-04-18T06:14:22.513Z,101805.91
2023-04-18T06:16:26.161Z,101766.94
2023-04-18T06:18:29.586Z,101772.13
2023-04-18T06:20:32.994Z,101806.22
2023-04-18T06:22:37.766Z,101802.22
2023-04-18T06:24:41.251Z,101804.31
2023-04-18T06:26:44.769Z,101800.50
2023-04-18T06:28:48.105Z,101804.16
2023-04-18T06:30:51.824Z,101801.47
2023-04-18T06:32:55.201Z,101808.75
2023-04-18T06:34:58.708Z,101803.69
2023-04-18T06:37:02.075Z,101802.91
2023-04-18T06:39:06.858Z,101810.03
2023-04-18T06:41:10.161Z,101806.63
2023-04-18T06:43:13.562Z,101807.88
2023-04-18T06:45:17.276Z,101811.47
2023-04-18T06:47:20.716Z,101799.53
2023-04-18T06:49:26.503Z,101820.91
2023-04-18T06:51:30.118Z,101810.16
2023-04-18T06:53:33.527Z,101805.88
2023-04-18T06:55:38.275Z,101810.19
2023-04-18T06:57:42.614Z,101808.81
2023-04-18T06:59:46.002Z,101806.44
2023-04-18T07:01:49.540Z,101817.31
2023-04-18T07:03:52.952Z,101812.84
2023-04-18T07:05:56.591Z,101822.03
2023-04-18T07:08:00.141Z,101825.38
2023-04-18T07:10:03.513Z,101815.38
2023-04-18T07:12:08.649Z,101819.97
2023-04-18T07:14:12.968Z,101816.13
2023-04-18T07:16:16.676Z,101821.53
2023-04-18T07:18:30.222Z,101828.00
2023-04-18T07:20:38.058Z,101840.66
2023-04-18T07:22:41.983Z,101843.88
2023-04-18T07:24:45.333Z,101844.06
2023-04-18T07:26:48.709Z,101761.91
2023-04-18T07:28:53.452Z,101843.44
2023-04-18T07:30:57.890Z,101845.84
2023-04-18T07:33:01.266Z,101846.13
2023-04-18T07:35:05.254Z,101845.22
2023-04-18T07:37:08.781Z,101850.78
2023-04-18T07:39:12.189Z,101848.16
2023-04-18T07:41:15.677Z,101844.41
2023-04-18T07:43:20.794Z,101854.91
2023-04-18T07:45:25.781Z,101858.63
2023-04-18T07:47:30.559Z,101865.81
2023-04-18T07:49:35.737Z,101864.72
2023-04-18T07:51:39.100Z,101868.34
2023-04-18T07:53:43.556Z,101870.44
2023-04-18T07:55:47.220Z,101831.03
2023-04-18T07:57:50.579Z,101871.19
2023-04-18T07:59:54.153Z,101873.72
2023-04-18T08:01:58.893Z,101846.31
2023-04-18T08:04:02.504Z,101861.00
2023-04-18T08:06:06.893Z,101866.63
2023-04-18T08:08:11.510Z,101868.19
2023-04-18T08:10:14.806Z,101870.22
2023-04-18T08:12:18.265Z,101869.75
2023-04-18T08:14:21.653Z,101872.78
2023-04-18T08:16:25.575Z,101870.22
2023-04-18T08:18:30.386Z,101874.16
2023-04-18T08:20:34.313Z,101881.44
2023-04-18T08:22:44.189Z,101871.69
2023-04-18T08:25:05.446Z,101876.31
2023-04-18T08:27:09.127Z,101876.75
2023-04-18T08:29:12.883Z,101873.53
2023-04-18T08:31:17.120Z,101872.72
2023-04-18T08:33:20.473Z,101873.97
2023-04-18T08:35:25.373Z,101835.47
2023-04-18T08:37:29.275Z,101873.78
2023-04-18T08:39:32.588Z,101874.97
2023-04-18T08:41:37.977Z,101871.00
2023-04-18T08:43:41.733Z,101875.88
2023-04-18T08:45:46.114Z,101877.91
2023-04-18T08:47:50.050Z,101867.56
2023-04-18T08:49:53.825Z,101881.19
2023-04-18T08:52:01.077Z,101852.88
2023-04-18T08:54:08.001Z,101877.78
2023-04-18T08:56:14.624Z,101877.47
2023-04-18T08:58:22.262Z,101890.34
2023-04-18T09:00:25.694Z,101881.06
2023-04-18T09:02:38.887Z,101880.66
2023-04-18T09:04:44.943Z,101885.09
2023-04-18T09:06:53.476Z,101880.88
2023-04-18T09:08:59.562Z,101879.81
2023-04-18T09:11:28.666Z,101885.59
2023-04-18T09:13:40.281Z,101889.41
2023-04-18T09:15:56.073Z,101880.50
2023-04-18T09:18:02.652Z,101878.72
2023-04-18T09:20:10.144Z,101883.00
2023-04-18T09:22:14.285Z,101877.91
2023-04-18T09:24:24.000Z,101879.00
2023-04-18T09:26:36.236Z,101871.16
2023-04-18T09:28:41.226Z,101881.78
2023-04-18T09:30:44.656Z,101881.41
2023-04-18T09:32:59.352Z,101879.59
2023-04-18T09:35:05.308Z,101880.34
2023-04-18T09:37:10.962Z,101876.94
2023-04-18T09:39:29.120Z,101839.47
2023-04-18T09:41:33.028Z,101876.16
2023-04-18T09:43:36.386Z,101866.72
2023-04-18T09:45:40.154Z,101860.78
2023-04-18T09:47:43.595Z,101865.03
2023-04-18T09:49:48.422Z,101861.59
2023-04-18T09:51:54.345Z,101866.84
2023-04-18T09:53:57.925Z,101864.34
2023-04-18T09:56:04.490Z,101837.97
2023-04-18T09:58:08.778Z,101865.72
2023-04-18T10:00:17.798Z,101854.69
2023-04-18T10:02:23.568Z,101861.72
2023-04-18T10:04:28.979Z,101853.44
2023-04-18T10:06:35.430Z,101863.56
2023-04-18T10:08:40.895Z,101866.63
2023-04-18T10:10:44.832Z,101864.72
2023-04-18T10:12:51.603Z,101863.75
2023-04-18T10:14:55.953Z,101864.91
2023-04-18T10:17:01.027Z,101858.38
2023-04-18T10:19:25.853Z,101857.34
2023-04-18T10:21:30.909Z,101857.84
2023-04-18T10:23:39.275Z,101861.91
2023-04-18T10:25:50.085Z,101830.16
2023-04-18T10:27:59.643Z,101843.88
2023-04-18T10:30:02.976Z,101856.06
2023-04-18T10:32:07.434Z,101840.09
2023-04-18T10:34:17.463Z,101839.31
2023-04-18T10:36:21.374Z,101838.28
2023-04-18T10:38:25.020Z,101832.03
2023-04-18T10:40:33.911Z,101798.50
2023-04-18T10:43:00.468Z,101836.47
2023-04-18T10:45:18.515Z,101841.03
2023-04-18T10:47:25.823Z,101836.88
2023-04-18T10:49:32.863Z,101847.78
2023-04-18T10:51:36.429Z,101840.47
2023-04-18T10:53:40.834Z,101831.19
2023-04-18T10:55:49.743Z,101835.78
2023-04-18T10:57:56.064Z,101841.03
2023-04-18T11:00:01.185Z,101838.66
2023-04-18T11:02:19.471Z,101800.44
2023-04-18T11:04:22.957Z,101830.94
2023-04-18T11:06:27.194Z,101830.97
2023-04-18T11:08:31.555Z,101829.00
2023-04-18T11:10:35.101Z,101833.97
2023-04-18T11:12:40.404Z,101825.56
2023-04-18T11:14:44.777Z,101813.56
2023-04-18T11:16:49.600Z,101824.38
2023-04-18T11:18:53.036Z,101809.00
2023-04-18T11:20:57.538Z,101819.34
2023-04-18T11:23:01.807Z,101817.00
2023-04-18T11:25:09.101Z,101806.50
2023-04-18T11:27:13.675Z,101818.78
2023-04-18T11:29:19.214Z,101801.28
2023-04-18T11:31:24.644Z,101781.06
2023-04-18T11:33:30.246Z,101814.66
2023-04-18T11:35:38.244Z,101814.78
2023-04-18T11:37:45.909Z,101792.63
2023-04-18T11:39:49.480Z,101815.44
2023-04-18T11:41:53.057Z,101812.97
2023-04-18T11:43:57.318Z,101806.84
2023-04-18T11:46:01.620Z,101814.06
2023-04-18T11:48:06.012Z,101806.78
2023-04-18T11:50:12.592Z,101811.16
2023-04-18T11:52:16.107Z,101813.72
2023-04-18T11:54:42.650Z,101810.19
2023-04-18T11:56:49.682Z,101809.63
2023-04-18T11:58:53.142Z,101729.75
2023-04-18T12:00:56.523Z,101812.81
2023-04-18T12:03:01.728Z,101810.53
2023-04-18T12:05:06.299Z,101812.09
2023-04-18T12:07:11.362Z,101816.47
2023-04-18T12:09:14.841Z,101805.59
2023-04-18T12:11:21.436Z,101812.03
2023-04-18T12:13:32.620Z,101810.63
2023-04-18T12:15:39.898Z,101806.53
2023-04-18T12:17:45.166Z,101803.25
2023-04-18T12:19:49.907Z,101807.88
2023-04-18T12:21:57.733Z,101804.94
2023-04-18T12:24:15.438Z,101782.13
2023-04-18T12:26:22.947Z,101801.31
2023-04-18T12:28:29.566Z,101800.13
2023-04-18T12:30:37.464Z,101786.06
2023-04-18T12:32:41.179Z,101775.66
2023-04-18T12:34:44.585Z,101792.41
2023-04-18T12:36:48.280Z,101776.41
2023-04-18T12:38:51.944Z,101783.59
2023-04-18T12:40:56.619Z,101787.00
2023-04-18T12:43:01.578Z,101790.66
2023-04-18T12:45:08.613Z,101770.53
2023-04-18T12:47:11.956Z,101787.47
2023-04-18T12:49:15.439Z,101785.94
2023-04-18T12:51:18.755Z,101787.94
2023-04-18T12:53:22.092Z,101789.94
2023-04-18T12:55:26.052Z,101756.09
2023-04-18T12:57:31.875Z,101785.88
2023-04-18T12:59:35.446Z,101784.56
2023-04-18T13:01:38.777Z,101780.28
2023-04-18T13:03:42.207Z,101782.22
2023-04-18T13:05:47.562Z,101778.94
2023-04-18T13:07:58.665Z,101737.22
2023-04-18T13:10:09.801Z,101787.16
2023-04-18T13:12:13.139Z,101785.38
2023-04-18T13:14:17.825Z,101778.38
2023-04-18T13:16:21.445Z,101782.88
2023-04-18T13:18:24.849Z,101781.81
2023-04-18T13:20:28.438Z,101774.84
2023-04-18T13:22:32.038Z,101780.09
2023-04-18T13:24:36.991Z,101776.50
2023-04-18T13:26:40.304Z,101781.63
2023-04-18T13:28:43.655Z,101779.06
2023-04-18T13:30:48.452Z,101758.06
2023-04-18T13:32:51.784Z,101774.28
2023-04-18T13:34:56.091Z,101773.31
2023-04-18T13:36:59.804Z,101775.03
2023-04-18T13:39:04.547Z,101768.88
2023-04-18T13:41:12.905Z,101770.50
2023-04-18T13:43:17.691Z,101685.22
2023-04-18T13:45:21.635Z,101776.28
2023-04-18T13:47:27.255Z,101771.31
2023-04-18T13:49:30.994Z,101764.34
2023-04-18T13:51:34.711Z,101765.38
2023-04-18T13:53:38.043Z,101768.84
2023-04-18T13:55:41.403Z,101769.31
2023-04-18T13:57:44.696Z,101773.63
2023-04-18T13:59:48.039Z,101766.28
2023-04-18T14:01:52.362Z,101761.41
2023-04-18T14:03:57.339Z,101768.13
2023-04-18T14:06:00.805Z,101763.72
2023-04-18T14:08:05.055Z,101741.22
2023-04-18T14:10:09.304Z,101772.09
2023-04-18T14:12:12.740Z,101767.50
2023-04-18T14:14:16.091Z,101769.94
2023-04-18T14:16:19.666Z,101771.59
2023-04-18T14:18:24.549Z,101767.13
2023-04-18T14:20:34.682Z,101772.41
2023-04-18T14:22:38.092Z,101773.03
2023-04-18T14:24:41.408Z,101769.56
2023-04-18T14:26:44.973Z,101766.91
2023-04-18T14:28:48.660Z,101766.84
2023-04-18T14:30:52.743Z,101762.34
2023-04-18T14:32:56.148Z,101767.44
2023-04-18T14:34:59.894Z,101756.47
2023-04-18T14:37:04.594Z,101758.81
2023-04-18T14:39:08.300Z,101761.44
2023-04-18T14:41:11.639Z,101739.19
2023-04-18T14:43:15.057Z,101732.25
2023-04-18T14:45:18.564Z,101755.63
2023-04-18T14:47:24.244Z,101761.84
2023-04-18T14:49:27.855Z,101758.38
2023-04-18T14:51:31.282Z,101760.91
2023-04-18T14:53:35.988Z,101749.41
2023-04-18T14:55:39.424Z,101767.19
2023-04-18T14:57:42.769Z,101763.59
2023-04-18T14:59:46.142Z,101762.06
2023-04-18T15:01:49.527Z,101754.63
2023-04-18T15:03:53.624Z,101758.88
2023-04-18T15:05:57.457Z,101759.63
2023-04-18T15:08:01.107Z,101755.31
2023-04-18T15:10:07.066Z,101762.91
2023-04-18T15:12:10.425Z,101739.31
2023-04-18T15:14:14.027Z,101769.16
2023-04-18T15:16:17.736Z,101768.34
2023-04-18T15:18:21.428Z,101766.47
2023-04-18T15:20:25.118Z,101771.41
2023-04-18T15:22:28.555Z,101760.66
2023-04-18T15:24:31.895Z,101769.97
2023-04-18T15:26:37.417Z,101760.03
2023-04-18T15:28:40.809Z,101764.50
2023-04-18T15:30:44.176Z,101737.59
2023-04-18T15:32:48.387Z,101766.41
2023-04-18T15:34:51.831Z,101769.94
2023-04-18T15:36:55.176Z,101770.03
2023-04-18T15:38:58.485Z,101764.78
2023-04-18T15:41:01.873Z,101767.06
2023-04-18T15:43:06.874Z,101766.38
2023-04-18T15:45:11.603Z,101765.06
2023-04-18T15:47:17.026Z,101734.44
2023-04-18T15:49:20.866Z,101767.03
2023-04-18T15:51:28.330Z,101769.72
2023-04-18T15:53:31.866Z,101769.69
2023-04-18T15:55:35.326Z,101774.75
2023-04-18T15:57:38.774Z,101772.16
2023-04-18T15:59:43.704Z,101773.38
2023-04-18T16:01:47.196Z,101776.44
2023-04-18T16:03:50.659Z,101768.63
2023-04-18T16:05:54.125Z,101762.81
2023-04-18T16:07:58.747Z,101669.03
2023-04-18T16:10:03.662Z,101772.13
2023-04-18T16:12:08.228Z,101755.06
2023-04-18T16:14:11.689Z,101760.25
2023-04-18T16:16:16.788Z,101759.53
2023-04-18T16:18:20.164Z,101759.59
2023-04-18T16:20:23.568Z,101762.63
2023-04-18T16:22:26.948Z,101762.69
2023-04-18T16:24:30.997Z,101755.72
2023-04-18T16:26:34.401Z,101759.44
2023-04-18T16:28:37.854Z,101768.78
2023-04-18T16:30:43.703Z,101761.63
2023-04-18T16:32:48.665Z,101724.44
2023-04-18T16:34:53.084Z,101735.66
2023-04-18T16:36:56.463Z,101748.81
2023-04-18T16:38:59.768Z,101761.22
2023-04-18T16:41:03.664Z,101741.59
2023-04-18T16:43:07.024Z,101746.97
2023-04-18T16:45:10.765Z,101766.63
2023-04-18T16:47:14.143Z,101759.78
2023-04-18T16:49:20.399Z,101765.09
2023-04-18T16:51:23.746Z,101760.50
2023-04-18T16:53:27.223Z,101758.50
2023-04-18T16:55:30.560Z,101749.47
2023-04-18T16:57:33.925Z,101754.69
2023-04-18T16:59:37.364Z,101750.22
2023-04-18T17:01:40.859Z,101757.97
2023-04-18T17:03:44.652Z,101746.88
2023-04-18T17:05:49.448Z,101751.94
2023-04-18T17:07:52.929Z,101717.22
2023-04-18T17:09:58.272Z,101755.53
2023-04-18T17:12:01.815Z,101754.72
2023-04-18T17:14:05.695Z,101751.84
2023-04-18T17:16:09.210Z,101765.06
2023-04-18T17:18:12.621Z,101722.47
2023-04-18T17:20:17.000Z,101766.91
2023-04-18T17:22:21.720Z,101760.66
2023-04-18T17:24:25.130Z,101762.13
2023-04-18T17:26:28.523Z,101737.28
2023-04-18T17:28:31.813Z,101755.97
2023-04-18T17:30:35.180Z,101763.13
2023-04-18T17:32:42.823Z,101762.34
2023-04-18T17:34:47.833Z,101765.13
2023-04-18T17:36:51.253Z,101765.44
2023-04-18T17:38:56.334Z,101748.81
2023-04-18T17:41:00.809Z,101762.78
2023-04-18T17:43:04.133Z,101763.19
2023-04-18T17:45:09.653Z,101772.94
2023-04-18T17:47:15.415Z,101768.66
2023-04-18T17:49:21.890Z,101772.84
2023-04-18T17:51:26.239Z,101772.00
2023-04-18T17:53:31.994Z,101768.28
2023-04-18T17:55:37.076Z,101776.97
2023-04-18T17:57:40.437Z,101775.13
2023-04-18T17:59:43.833Z,101771.50
2023-04-18T18:01:47.384Z,101780.19
2023-04-18T18:03:53.712Z,101777.31
2023-04-18T18:05:57.281Z,101766.47
2023-04-18T18:08:01.356Z,101772.63
2023-04-18T18:10:06.335Z,101777.81
2023-04-18T18:12:11.401Z,101785.69
2023-04-18T18:14:14.874Z,101785.41
2023-04-18T18:16:19.845Z,101789.84
2023-04-18T18:18:24.126Z,101789.03
2023-04-18T18:20:27.811Z,101772.06
2023-04-18T18:22:31.261Z,101776.56
2023-04-18T18:24:34.622Z,101715.16
2023-04-18T18:26:38.002Z,101784.34
2023-04-18T18:28:42.753Z,101789.59
2023-04-18T18:30:47.750Z,101794.84
2023-04-18T18:32:53.339Z,101791.25
2023-04-18T18:34:56.879Z,101797.34
2023-04-18T18:37:00.585Z,101800.78
2023-04-18T18:39:03.985Z,101797.09
2023-04-18T18:41:07.795Z,101789.91
2023-04-18T18:43:11.151Z,101797.03
2023-04-18T18:45:15.928Z,101798.75
2023-04-18T18:47:19.936Z,101794.28
2023-04-18T18:49:23.292Z,101803.91
2023-04-18T18:51:27.073Z,101800.22
2023-04-18T18:53:30.402Z,101787.41
2023-04-18T18:55:33.690Z,101815.53
2023-04-18T18:57:37.598Z,101814.56
2023-04-18T18:59:41.523Z,101814.47
2023-04-18T19:01:46.494Z,101811.63
2023-04-18T19:03:50.136Z,101818.47
2023-04-18T19:05:53.713Z,101826.28
2023-04-18T19:07:57.192Z,101828.94
2023-04-18T19:10:01.691Z,101821.03
2023-04-18T19:12:06.065Z,101833.22
2023-04-18T19:14:09.483Z,101831.41
2023-04-18T19:16:13.104Z,101821.63
2023-04-18T19:18:19.480Z,101828.44
2023-04-18T19:20:23.695Z,101843.09
2023-04-18T19:22:27.061Z,101838.72
2023-04-18T19:24:31.798Z,101839.69
2023-04-18T19:26:35.241Z,101837.94
2023-04-18T19:28:38.919Z,101842.38
2023-04-18T19:30:43.284Z,101838.09
2023-04-18T19:32:46.767Z,101834.44
2023-04-18T19:34:51.912Z,101851.16
2023-04-18T19:36:55.301Z,101849.44
2023-04-18T19:38:58.725Z,101840.66
2023-04-18T19:41:02.172Z,101850.97
2023-04-18T19:43:05.626Z,101850.28
2023-04-18T19:45:11.268Z,101844.94
2023-04-18T19:47:16.479Z,101842.22
2023-04-18T19:49:19.921Z,101855.56
2023-04-18T19:51:24.663Z,101852.09
2023-04-18T19:53:28.036Z,101849.56
2023-04-18T19:55:31.550Z,101853.19
2023-04-18T19:57:38.979Z,101855.03
2023-04-18T19:59:42.367Z,101854.09
2023-04-18T20:01:46.017Z,101856.63
2023-04-18T20:03:49.605Z,101859.97
2023-04-18T20:05:53.097Z,101853.88
2023-04-18T20:07:57.884Z,101859.97
2023-04-18T20:10:01.492Z,101862.44
2023-04-18T20:12:05.209Z,101850.97
2023-04-18T20:14:09.943Z,101851.75
2023-04-18T20:16:13.700Z,101852.44
2023-04-18T20:18:17.124Z,101851.59
2023-04-18T20:20:20.538Z,101858.75
2023-04-18T20:22:24.813Z,101865.78
2023-04-18T20:24:31.621Z,101859.66
2023-04-18T20:26:34.986Z,101856.88
2023-04-18T20:28:38.753Z,101854.13
2023-04-18T20:30:43.086Z,101856.16
2023-04-18T20:32:46.519Z,101861.22
2023-04-18T20:34:49.937Z,101857.47
2023-04-18T20:36:53.235Z,101863.09
2023-04-18T20:38:56.590Z,101855.47
2023-04-18T20:41:02.096Z,101849.53
2023-04-18T20:43:06.720Z,101858.72
2023-04-18T20:45:11.554Z,101863.38
2023-04-18T20:47:15.897Z,101825.84
2023-04-18T20:49:19.568Z,101869.00
2023-04-18T20:51:22.899Z,101869.47
2023-04-18T20:53:27.095Z,101869.09
2023-04-18T20:55:30.940Z,101872.13
2023-04-18T20:57:36.517Z,101871.81
2023-04-18T20:59:39.851Z,101871.50
2023-04-18T21:01:43.213Z,101877.38
2023-04-18T21:03:46.879Z,101877.16
2023-04-18T21:05:50.446Z,101871.75
2023-04-18T21:07:53.763Z,101878.72
2023-04-18T21:09:57.104Z,101835.09
2023-04-18T21:12:00.446Z,101877.72
2023-04-18T21:14:06.704Z,101887.25
2023-04-18T21:16:10.834Z,101883.53
2023-04-18T21:18:14.308Z,101880.75
2023-04-18T21:20:17.673Z,101878.88
2023-04-18T21:22:21.112Z,101883.06
2023-04-18T21:24:24.500Z,101874.91
2023-04-18T21:26:28.227Z,101881.81
2023-04-18T21:28:31.560Z,101877.25
2023-04-18T21:30:36.439Z,101882.69
2023-04-18T21:32:39.868Z,101883.53
2023-04-18T21:34:43.289Z,101879.06
2023-04-18T21:36:46.584Z,101882.63
2023-04-18T21:38:52.605Z,101880.06
2023-04-18T21:40:55.975Z,101876.47
2023-04-18T21:42:59.367Z,101873.66
2023-04-18T21:45:02.788Z,101878.22
2023-04-18T21:47:07.504Z,101882.78
2023-04-18T21:49:11.153Z,101883.84
2023-04-18T21:51:16.082Z,101886.66
2023-04-18T21:53:19.360Z,101885.84
2023-04-18T21:55:22.770Z,101889.28
2023-04-18T21:57:26.128Z,101889.22
2023-04-18T21:59:29.536Z,101890.13
2023-04-18T22:01:34.374Z,101883.94
2023-04-18T22:03:39.636Z,101880.75
2023-04-18T22:05:44.063Z,101873.50
2023-04-18T22:07:57.498Z,101856.84
2023-04-18T22:10:05.710Z,101884.59
2023-04-18T22:12:09.475Z,101881.72
2023-04-18T22:14:14.521Z,101881.44
2023-04-18T22:16:18.206Z,101887.59
2023-04-18T22:18:21.884Z,101883.34
2023-04-18T22:20:26.933Z,101874.28
2023-04-18T22:22:30.401Z,101886.72
2023-04-18T22:24:33.684Z,101882.41
2023-04-18T22:26:37.129Z,101885.88
2023-04-18T22:28:40.526Z,101887.59
2023-04-18T22:30:43.863Z,101896.47
2023-04-18T22:32:47.775Z,101886.97
2023-04-18T22:34:51.138Z,101885.31
2023-04-18T22:36:55.823Z,101855.81
2023-04-18T22:38:59.130Z,101892.28
2023-04-18T22:41:02.606Z,101895.63
2023-04-18T22:43:05.991Z,101858.97
2023-04-18T22:45:10.700Z,101898.03
2023-04-18T22:47:14.275Z,101859.53
2023-04-18T22:49:17.897Z,101893.41
2023-04-18T22:51:23.373Z,101900.38
2023-04-18T22:53:28.168Z,101890.66
2023-04-18T22:55:31.510Z,101896.69
2023-04-18T22:57:34.899Z,101897.56
2023-04-18T22:59:38.443Z,101900.09
2023-04-18T23:01:41.990Z,101901.84
2023-04-18T23:03:45.534Z,101904.53
2023-04-18T23:05:48.919Z,101903.63
2023-04-18T23:07:52.232Z,101902.78
2023-04-18T23:09:56.956Z,101898.53
2023-04-18T23:12:00.295Z,101908.06
2023-04-18T23:14:03.944Z,101899.22
2023-04-18T23:16:08.560Z,101894.94
2023-04-18T23:18:12.669Z,101813.63
2023-04-18T23:20:16.433Z,101902.59
2023-04-18T23:22:20.321Z,101893.75
2023-04-18T23:24:23.639Z,101889.31
2023-04-18T23:26:28.592Z,101896.19
2023-04-18T23:28:32.031Z,101898.03
2023-04-18T23:30:36.731Z,101888.25
2023-04-18T23:32:40.714Z,101897.16
2023-04-18T23:34:45.883Z,101889.41
2023-04-18T23:36:49.350Z,101895.47
2023-04-18T23:38:52.759Z,101826.50
2023-04-18T23:40:56.062Z,101885.13
2023-04-18T23:43:00.824Z,101885.06
2023-04-18T23:45:05.775Z,101856.28